Terminal Aerodrome Forecast
Issued by NWS

Home | Current Version | Previous Version | Text Only | Print | Product List | Glossary Off
Versions: 1 2 3 4 5 6 7 8 9 10 11 12 13 14 15 16 17 18 19 20 21 22

000
FTUS43 KGRB 151521 AAA
TAFMTW
TAF AMD
KMTW 151521Z 1515/1612 VRB03KT 1/4SM +SN OVC011
      TEMPO 1515/1517 1 1/2SM -SN OVC008
     FM151700 12010G16KT 2SM -SN OVC015
     FM152000 09008KT 2SM -SN OVC015
     FM152300 05005KT 2SM -SN OVC015
     FM160500 36010G16KT 1 1/2SM -SN OVC015
      TEMPO 1607/1611 1/2SM SN OVC009=

USA.gov is the U.S. government's official web portal to all federal, state and local government web resources and services.